Time;durP1;ratioP1;P1;durP2;ratioP2;P2;SDS_P1;SDS_P2;PMS_P1;PMS_P2;Temp;Humidity;BMP_temperature;BMP_pressure;BME280_temperature;BME280_humidity;BME280_pressure;Samples;Min_cycle;Max_cycle;Signal;HPM_P1;HPM_P2
2022/10/03 06:11:12;;;;;;;20.70;13.47;;;8.90;99.90;;;;;;5129675;27;20288;-85
2022/10/03 06:58:54;;;;;;;18.07;12.03;;;10.10;99.90;;;;;;5138541;27;20279;-85
2022/10/03 07:09:22;;;;;;;14.30;11.03;;;10.30;99.90;;;;;;5135754;27;20628;-85
2022/10/03 07:12:16;;;;;;;12.73;9.17;;;10.40;99.90;;;;;;5118631;28;20586;-85
2022/10/03 07:15:01;;;;;;;9.97;7.60;;;10.40;99.90;;;;;;5117736;28;20199;-86
2022/10/03 07:18:21;;;;;;;12.87;9.13;;;10.50;99.90;;;;;;5134571;28;20174;-86
2022/10/03 07:21:08;;;;;;;11.03;6.90;;;10.60;99.90;;;;;;5076042;28;20196;-85
2022/10/03 07:24:03;;;;;;;9.30;7.43;;;10.70;99.90;;;;;;5136070;27;20165;-86
2022/10/03 07:26:57;;;;;;;9.20;6.30;;;10.90;99.90;;;;;;5133633;28;20206;-86
2022/10/03 07:29:28;;;;;;;6.63;5.70;;;10.90;99.90;;;;;;5115730;28;20186;-85
2022/10/03 07:32:18;;;;;;;11.27;6.10;;;11.00;99.90;;;;;;5115840;28;20642;-84
2022/10/03 07:35:02;;;;;;;9.67;8.00;;;11.20;99.90;;;;;;5113875;28;20196;-86
2022/10/03 07:41:11;;;;;;;6.23;4.47;;;11.30;99.90;;;;;;5114212;28;20186;-87
2022/10/03 07:44:12;;;;;;;6.17;4.60;;;11.30;99.90;;;;;;5112865;28;20170;-87
2022/10/03 07:47:08;;;;;;;8.30;4.97;;;11.20;99.90;;;;;;5113053;28;20622;-85
2022/10/03 07:50:03;;;;;;;7.73;4.83;;;11.00;99.90;;;;;;5113311;28;20257;-87
2022/10/03 07:52:53;;;;;;;11.87;6.10;;;10.90;99.90;;;;;;5115721;28;20160;-87
2022/10/03 07:55:24;;;;;;;12.40;8.27;;;10.70;99.90;;;;;;5114970;28;20214;-86
2022/10/03 07:58:18;;;;;;;13.27;8.20;;;10.50;99.90;;;;;;5115556;28;20187;-86
2022/10/03 08:01:17;;;;;;;6.87;6.20;;;10.50;99.90;;;;;;5115494;28;20668;-87
2022/10/03 08:03:42;;;;;;;10.63;6.33;;;10.30;99.90;;;;;;5129189;28;20215;-85
2022/10/03 08:06:27;;;;;;;9.23;6.97;;;10.40;99.90;;;;;;5134251;28;20204;-88
2022/10/03 08:09:23;;;;;;;8.73;7.03;;;10.40;99.90;;;;;;5133911;28;20258;-85
2022/10/03 08:12:01;;;;;;;8.40;5.97;;;10.70;99.90;;;;;;5118459;28;20168;-84
2022/10/03 08:14:49;;;;;;;13.10;6.67;;;10.90;99.90;;;;;;5114115;28;20167;-87
2022/10/03 08:17:41;;;;;;;8.53;6.60;;;10.90;99.90;;;;;;5112325;28;20183;-87
2022/10/03 08:20:17;;;;;;;9.60;5.90;;;11.00;99.90;;;;;;5100183;28;20180;-88
2022/10/03 08:22:46;;;;;;;7.50;4.30;;;11.10;99.90;;;;;;5098744;28;20172;-86
2022/10/03 08:25:26;;;;;;;7.13;4.47;;;11.10;99.90;;;;;;5098722;28;20197;-87
2022/10/03 08:28:21;;;;;;;6.53;4.97;;;11.10;99.90;;;;;;5097942;28;20298;-87
2022/10/03 08:31:16;;;;;;;9.07;5.40;;;11.30;99.90;;;;;;5099129;28;20213;-85
2022/10/03 08:34:30;;;;;;;8.83;5.70;;;11.40;99.90;;;;;;5110571;28;20296;-86
2022/10/03 08:37:14;;;;;;;8.67;5.37;;;11.40;99.90;;;;;;5117883;28;20232;-81
2022/10/03 08:39:45;;;;;;;9.70;6.30;;;11.40;99.90;;;;;;5117968;28;20532;-86
2022/10/03 08:42:20;;;;;;;12.10;6.80;;;11.50;99.90;;;;;;5118203;28;20199;-83
2022/10/03 08:45:02;;;;;;;9.77;6.90;;;11.40;99.90;;;;;;5118436;28;20198;-82
2022/10/03 08:48:04;;;;;;;9.03;6.63;;;11.50;99.90;;;;;;5116563;28;20198;-80
2022/10/03 08:50:40;;;;;;;7.53;6.30;;;11.50;99.90;;;;;;5118139;28;20171;-87
2022/10/03 08:53:37;;;;;;;11.73;5.63;;;11.50;99.90;;;;;;5117041;28;20167;-83
2022/10/03 08:56:23;;;;;;;12.33;4.27;;;12.30;99.90;;;;;;5118000;28;20528;-91
2022/10/03 08:59:25;;;;;;;13.00;4.17;;;13.50;99.90;;;;;;5117838;28;20163;-85
2022/10/03 09:02:18;;;;;;;6.73;4.17;;;14.00;99.90;;;;;;5117207;28;20258;-85
2022/10/03 09:05:03;;;;;;;6.83;3.87;;;14.60;99.90;;;;;;5116390;28;20211;-82
2022/10/03 09:07:29;;;;;;;7.43;4.10;;;14.70;99.90;;;;;;5115694;28;20272;-82
2022/10/03 09:10:15;;;;;;;6.90;3.87;;;14.40;99.90;;;;;;5115563;28;20516;-80
2022/10/03 09:13:09;;;;;;;12.63;6.43;;;14.30;99.90;;;;;;5116675;28;20159;-83
2022/10/03 09:16:08;;;;;;;9.83;4.90;;;15.30;99.90;;;;;;5116751;28;20195;-86
2022/10/03 09:18:43;;;;;;;7.87;4.50;;;16.30;99.90;;;;;;5117936;28;20175;-86
2022/10/03 09:21:40;;;;;;;8.70;3.73;;;16.30;99.90;;;;;;5116302;28;20175;-85
2022/10/03 09:24:33;;;;;;;5.43;4.60;;;15.60;99.90;;;;;;5118270;28;20183;-85
2022/10/03 09:27:12;;;;;;;9.67;3.80;;;14.60;99.90;;;;;;5117509;28;20279;-87
2022/10/03 09:30:00;;;;;;;6.13;3.80;;;13.80;99.90;;;;;;5115760;28;20262;-87
2022/10/03 09:33:03;;;;;;;8.00;4.63;;;14.00;99.90;;;;;;5115462;28;20176;-86
2022/10/03 09:35:44;;;;;;;9.83;4.80;;;15.60;99.90;;;;;;5117706;28;20243;-85
2022/10/03 09:38:31;;;;;;;6.00;3.60;;;16.00;99.90;;;;;;5117698;28;20173;-85
2022/10/03 09:41:21;;;;;;;7.53;3.77;;;16.70;99.90;;;;;;5118903;28;20531;-83
2022/10/03 09:44:12;;;;;;;5.73;3.60;;;17.50;99.90;;;;;;5116636;28;20228;-84
2022/10/03 09:50:35;;;;;;;4.87;3.37;;;18.50;99.90;;;;;;5119718;28;20159;-85
2022/10/03 09:53:36;;;;;;;5.27;2.30;;;18.60;99.90;;;;;;5086647;28;20180;-85
2022/10/03 09:56:08;;;;;;;5.07;2.43;;;17.60;99.90;;;;;;5116571;28;20565;-86
2022/10/03 09:59:12;;;;;;;5.33;2.67;;;18.40;99.90;;;;;;5119311;28;20172;-87
2022/10/03 10:01:57;;;;;;;6.60;2.47;;;18.60;99.90;;;;;;5064674;28;20614;-87
2022/10/03 10:04:47;;;;;;;5.47;2.60;;;18.80;99.90;;;;;;5119913;28;20163;-88
2022/10/03 10:07:47;;;;;;;4.37;2.57;;;19.10;99.90;;;;;;5121802;28;20652;-86
2022/10/03 10:10:47;;;;;;;7.17;3.00;;;19.20;99.90;;;;;;5118523;28;20228;-87
2022/10/03 10:13:32;;;;;;;4.20;2.50;;;19.40;99.90;;;;;;5117113;28;20522;-86
2022/10/03 10:16:07;;;;;;;2.87;1.87;;;19.40;99.90;;;;;;5117090;28;20210;-87
2022/10/03 10:18:51;;;;;;;3.70;1.60;;;19.10;99.90;;;;;;5117490;28;20680;-88
2022/10/03 10:21:36;;;;;;;4.47;1.87;;;17.60;99.90;;;;;;5117407;28;20197;-88
2022/10/03 10:24:17;;;;;;;3.87;1.90;;;16.80;99.90;;;;;;5118512;28;20231;-87
2022/10/03 10:27:01;;;;;;;2.93;1.70;;;16.50;99.90;;;;;;5116573;28;20740;-88
2022/10/03 10:29:37;;;;;;;2.70;1.70;;;16.40;99.90;;;;;;5116480;28;20259;-85
2022/10/03 10:32:21;;;;;;;5.37;1.70;;;17.20;99.90;;;;;;5115938;28;20168;-88
2022/10/03 10:35:11;;;;;;;2.40;1.30;;;18.20;99.90;;;;;;5117549;28;20195;-88
2022/10/03 10:38:19;;;;;;;6.13;2.20;;;19.10;99.90;;;;;;5115808;28;20282;-84
2022/10/03 10:41:09;;;;;;;3.73;2.20;;;19.50;99.90;;;;;;5121459;28;20159;-86
2022/10/03 10:44:16;;;;;;;5.30;2.20;;;19.50;99.90;;;;;;5119357;28;20254;-83
2022/10/03 10:46:51;;;;;;;4.93;2.00;;;19.60;99.90;;;;;;5120530;28;20198;-86
2022/10/03 10:49:36;;;;;;;4.03;1.80;;;18.50;99.90;;;;;;5120533;28;20205;-87
2022/10/03 10:52:14;;;;;;;6.00;2.10;;;17.50;99.90;;;;;;5119061;28;20268;-85
2022/10/03 10:54:52;;;;;;;3.90;2.20;;;17.50;99.90;;;;;;5121000;28;20157;-85
2022/10/03 10:57:25;;;;;;;4.40;2.10;;;17.90;99.90;;;;;;5119515;28;20191;-85
2022/10/03 11:00:07;;;;;;;4.17;2.10;;;18.70;99.90;;;;;;5120706;28;20177;-83
2022/10/03 11:02:45;;;;;;;4.03;2.40;;;19.20;99.90;;;;;;5120159;28;20147;-83
2022/10/03 11:06:03;;;;;;;4.33;2.13;;;20.40;99.90;;;;;;5119218;28;20197;-84
2022/10/03 11:08:59;;;;;;;2.70;1.70;;;20.70;99.90;;;;;;5085945;28;20292;-83
2022/10/03 11:11:46;;;;;;;4.53;1.87;;;21.20;99.90;;;;;;5120675;28;20167;-87
2022/10/03 11:15:07;;;;;;;2.87;1.40;;;21.60;99.90;;;;;;5119332;28;20192;-84
2022/10/03 11:17:52;;;;;;;3.20;1.90;;;20.40;99.90;;;;;;5119666;28;20260;-84
2022/10/03 11:20:45;;;;;;;4.20;2.10;;;18.60;99.90;;;;;;5117861;28;20192;-83
2022/10/03 11:23:11;;;;;;;3.80;2.40;;;18.10;99.90;;;;;;5120240;28;20204;-83
2022/10/03 11:25:52;;;;;;;4.60;2.23;;;19.00;99.90;;;;;;5120757;28;20189;-84
2022/10/03 11:28:48;;;;;;;5.30;2.07;;;20.20;99.90;;;;;;5120940;28;20243;-85
2022/10/03 11:31:32;;;;;;;5.87;1.60;;;19.60;99.90;;;;;;5120663;28;20160;-82
2022/10/03 11:34:44;;;;;;;4.37;1.73;;;18.50;99.90;;;;;;5120666;28;20164;-83
2022/10/03 11:37:12;;;;;;;4.40;2.10;;;17.30;99.90;;;;;;5117793;28;20226;-86
2022/10/03 11:39:47;;;;;;;3.37;1.80;;;16.60;99.90;;;;;;5120582;28;20181;-84
2022/10/03 11:42:53;;;;;;;4.60;1.93;;;17.40;99.90;;;;;;5118961;28;20160;-84
2022/10/03 11:45:25;;;;;;;4.70;2.10;;;19.00;99.90;;;;;;5120696;28;20198;-85
2022/10/03 11:47:55;;;;;;;3.23;1.43;;;20.30;99.90;;;;;;5120805;28;20172;-85
2022/10/03 11:51:00;;;;;;;5.97;1.60;;;21.20;99.90;;;;;;5119922;28;20183;-83
2022/10/03 11:53:49;;;;;;;4.93;2.00;;;21.80;99.90;;;;;;5061399;28;20567;-86
2022/10/03 11:56:24;;;;;;;4.10;1.57;;;22.00;99.90;;;;;;5122641;28;20209;-83
2022/10/03 11:59:10;;;;;;;1.93;1.13;;;22.50;99.90;;;;;;5123310;28;20652;-84
2022/10/03 12:01:59;;;;;;;5.17;3.17;;;22.50;99.90;;;;;;5124601;28;20164;-83
2022/10/03 12:04:47;;;;;;;5.40;1.73;;;21.30;99.90;;;;;;5124189;28;20501;-86
2022/10/03 12:10:33;;;;;;;2.67;1.63;;;19.10;99.90;;;;;;5125066;28;20196;-85
2022/10/03 12:13:03;;;;;;;4.23;2.10;;;18.10;99.90;;;;;;5126065;28;20180;-85
2022/10/03 12:15:37;;;;;;;3.63;1.67;;;18.00;99.90;;;;;;5124847;28;20195;-84
2022/10/03 12:18:26;;;;;;;5.53;1.80;;;18.30;99.90;;;;;;5122001;28;20199;-84
2022/10/03 12:21:18;;;;;;;2.37;1.73;;;19.80;99.90;;;;;;5124020;28;20224;-84
2022/10/03 12:23:43;;;;;;;2.87;1.30;;;21.20;99.90;;;;;;5121715;28;20167;-82
2022/10/03 12:26:21;;;;;;;2.33;1.60;;;21.70;99.90;;;;;;5122159;28;20193;-83
2022/10/03 12:28:52;;;;;;;3.20;1.57;;;21.60;99.90;;;;;;5121011;28;20176;-83
2022/10/03 12:31:40;;;;;;;6.10;1.87;;;20.70;99.90;;;;;;5121644;28;20166;-82
2022/10/03 12:34:46;;;;;;;3.97;1.90;;;19.40;99.90;;;;;;5122141;28;20229;-83
2022/10/03 12:37:21;;;;;;;3.13;1.60;;;18.90;99.90;;;;;;5122801;27;20270;-84
2022/10/03 12:40:00;;;;;;;3.43;1.67;;;19.40;99.90;;;;;;5121189;28;20177;-84
2022/10/03 12:42:47;;;;;;;4.23;2.50;;;20.10;99.90;;;;;;5120652;28;20230;-85
2022/10/03 12:45:48;;;;;;;5.60;1.83;;;21.20;99.90;;;;;;5121440;28;20200;-85
2022/10/03 12:48:47;;;;;;;5.43;1.70;;;22.30;99.90;;;;;;5121999;28;20183;-83
2022/10/03 12:51:34;;;;;;;3.57;1.77;;;22.70;99.90;;;;;;5121776;28;20152;-82
2022/10/03 12:54:14;;;;;;;4.00;2.47;;;22.60;99.90;;;;;;5123321;28;20604;-84
2022/10/03 12:56:47;;;;;;;4.13;2.50;;;22.90;99.90;;;;;;5122366;28;20197;-85
2022/10/03 12:59:13;;;;;;;5.00;2.20;;;22.80;99.90;;;;;;5122560;28;20165;-85
2022/10/03 13:02:01;;;;;;;2.77;1.97;;;22.80;99.90;;;;;;5121242;28;20265;-84
2022/10/03 13:05:06;;;;;;;4.03;1.77;;;22.90;99.90;;;;;;5118880;28;20217;-84
2022/10/03 13:07:45;;;;;;;5.03;2.30;;;22.90;99.90;;;;;;5060364;28;20234;-82
2022/10/03 13:10:14;;;;;;;2.77;2.00;;;23.10;99.90;;;;;;5110776;28;20549;-84
2022/10/03 13:12:49;;;;;;;2.97;1.90;;;23.10;99.90;;;;;;5117097;28;20262;-83
2022/10/03 13:15:17;;;;;;;3.37;2.00;;;22.00;99.90;;;;;;5119387;27;20277;-85
2022/10/03 13:18:08;;;;;;;4.20;1.83;;;20.80;99.90;;;;;;5117611;28;20258;-80
2022/10/03 13:20:39;;;;;;;2.57;2.00;;;19.50;99.90;;;;;;5117371;28;20531;-82
2022/10/03 13:23:09;;;;;;;3.87;1.83;;;19.60;99.90;;;;;;5118758;28;20173;-86
2022/10/03 13:25:46;;;;;;;3.23;1.93;;;20.50;99.90;;;;;;5120910;28;20210;-87
2022/10/03 13:28:34;;;;;;;5.63;1.93;;;21.20;99.90;;;;;;5119562;28;20170;-83
2022/10/03 13:31:14;;;;;;;4.73;1.93;;;20.20;99.90;;;;;;5120349;28;20176;-85
2022/10/03 13:33:52;;;;;;;4.40;2.00;;;19.60;99.90;;;;;;5122182;28;20220;-86
2022/10/03 13:36:29;;;;;;;6.07;2.20;;;20.20;99.90;;;;;;5131609;28;20200;-80
2022/10/03 13:39:04;;;;;;;4.97;2.10;;;21.10;99.90;;;;;;5135992;28;20223;-80
2022/10/03 13:41:58;;;;;;;4.33;2.00;;;20.50;99.90;;;;;;5126894;28;20164;-86
2022/10/03 13:45:02;;;;;;;6.27;2.30;;;20.70;99.90;;;;;;5117803;28;20163;-82
2022/10/03 13:47:46;;;;;;;3.97;2.03;;;20.20;99.90;;;;;;5116026;28;20190;-83
2022/10/03 13:50:25;;;;;;;4.13;2.30;;;19.50;99.90;;;;;;5118902;28;20258;-84
2022/10/03 13:53:03;;;;;;;4.20;1.80;;;18.30;99.90;;;;;;5118328;28;20214;-83
2022/10/03 13:55:56;;;;;;;4.23;2.17;;;18.00;99.90;;;;;;5121719;28;20204;-84
2022/10/03 13:58:25;;;;;;;3.47;2.17;;;18.00;99.90;;;;;;5131602;28;20222;-83
2022/10/03 14:01:02;;;;;;;4.07;2.93;;;18.20;99.90;;;;;;5120910;28;20203;-85
2022/10/03 14:03:56;;;;;;;6.27;2.40;;;18.40;99.90;;;;;;5122350;28;20521;-84
2022/10/03 14:06:39;;;;;;;4.70;2.00;;;18.10;99.90;;;;;;5122426;28;20195;-85
2022/10/03 14:09:13;;;;;;;4.27;2.43;;;17.90;99.90;;;;;;5121443;28;20700;-84
2022/10/03 14:12:03;;;;;;;4.87;2.30;;;18.60;99.90;;;;;;5122719;28;20316;-85
2022/10/03 14:14:51;;;;;;;6.07;2.30;;;18.60;99.90;;;;;;5121813;28;20168;-86
2022/10/03 14:17:29;;;;;;;3.47;2.20;;;18.40;99.90;;;;;;5120969;28;20199;-86
2022/10/03 14:20:07;;;;;;;6.23;2.17;;;18.00;99.90;;;;;;5118238;28;20167;-84
2022/10/03 14:22:42;;;;;;;2.63;2.00;;;17.70;99.90;;;;;;5120446;28;20164;-86
2022/10/03 14:25:35;;;;;;;3.40;2.20;;;17.10;99.90;;;;;;5120283;28;20191;-85
2022/10/03 14:28:10;;;;;;;5.50;2.17;;;17.00;99.90;;;;;;5118534;28;20180;-86
2022/10/03 14:30:57;;;;;;;3.97;2.10;;;16.70;99.90;;;;;;5119700;28;20253;-86
2022/10/03 14:33:47;;;;;;;3.73;1.90;;;16.50;99.90;;;;;;5120299;28;20544;-84
2022/10/03 14:36:34;;;;;;;5.00;2.43;;;16.30;99.90;;;;;;5123342;28;20236;-86
2022/10/03 14:39:11;;;;;;;4.13;2.00;;;16.10;99.90;;;;;;5122340;28;20683;-86
2022/10/03 14:41:59;;;;;;;4.23;1.80;;;15.80;99.90;;;;;;5120263;28;20181;-86
2022/10/03 14:44:47;;;;;;;5.23;1.90;;;15.70;99.90;;;;;;5119369;28;20190;-84
2022/10/03 14:47:16;;;;;;;4.73;3.00;;;15.60;99.90;;;;;;5117875;28;20235;-85
2022/10/03 14:49:58;;;;;;;3.53;1.90;;;15.60;99.90;;;;;;5117483;28;20643;-83
2022/10/03 14:52:26;;;;;;;3.47;1.87;;;15.50;99.90;;;;;;5119231;28;20174;-85
2022/10/03 14:55:01;;;;;;;4.30;1.87;;;15.30;99.90;;;;;;5118500;28;20203;-84
2022/10/03 14:57:31;;;;;;;5.37;1.67;;;15.20;99.90;;;;;;5117025;28;20204;-82
2022/10/03 14:59:58;;;;;;;5.07;2.60;;;15.20;99.90;;;;;;5118561;28;20204;-84
2022/10/03 15:02:44;;;;;;;20.77;12.87;;;15.20;99.90;;;;;;5124195;28;20183;-82
2022/10/03 15:05:15;;;;;;;30.63;18.23;;;15.20;99.90;;;;;;5117566;28;20707;-83
2022/10/03 15:07:43;;;;;;;5.83;3.57;;;15.10;99.90;;;;;;5114971;28;20241;-83
2022/10/03 15:10:14;;;;;;;20.63;14.47;;;14.90;99.90;;;;;;5117261;28;20643;-84
2022/10/03 15:12:45;;;;;;;4.53;2.80;;;14.80;99.90;;;;;;5117669;28;20219;-85
2022/10/03 15:15:22;;;;;;;4.97;2.43;;;14.60;99.90;;;;;;5116698;28;20200;-82
2022/10/03 15:17:54;;;;;;;4.03;2.17;;;14.50;99.90;;;;;;5116432;28;20204;-85
2022/10/03 15:20:31;;;;;;;4.57;2.30;;;14.50;99.90;;;;;;5118115;28;20263;-83
2022/10/03 15:23:02;;;;;;;4.20;2.27;;;12.90;99.90;;;;;;5125203;28;20189;-84
2022/10/03 15:25:34;;;;;;;4.13;1.93;;;14.50;99.90;;;;;;5116762;28;20198;-85
2022/10/03 15:28:05;;;;;;;2.33;1.90;;;14.40;99.90;;;;;;5116428;28;20157;-81
2022/10/03 15:30:34;;;;;;;4.67;1.63;;;14.40;99.90;;;;;;5118240;28;20221;-83
2022/10/03 15:33:09;;;;;;;3.80;2.33;;;14.40;99.90;;;;;;5120284;28;20176;-83
2022/10/03 15:35:40;;;;;;;4.00;2.20;;;14.30;99.90;;;;;;5119724;28;20199;-85
2022/10/03 15:38:34;;;;;;;3.87;1.70;;;14.20;99.90;;;;;;5119313;28;20184;-85
2022/10/03 15:41:08;;;;;;;5.17;2.50;;;14.20;99.90;;;;;;5119446;28;20183;-82
2022/10/03 15:43:40;;;;;;;12.23;3.60;;;14.00;99.90;;;;;;5116862;28;20281;-82
2022/10/03 15:46:34;;;;;;;9.47;3.47;;;13.80;99.90;;;;;;5117794;28;20196;-83
2022/10/03 15:49:07;;;;;;;4.30;2.40;;;13.80;99.90;;;;;;5117962;28;20191;-84
2022/10/03 15:51:37;;;;;;;7.90;2.63;;;13.70;99.90;;;;;;5117169;28;20176;-82
2022/10/03 15:54:06;;;;;;;5.80;2.27;;;13.70;99.90;;;;;;5120441;28;20184;-83
2022/10/03 15:56:38;;;;;;;7.00;2.93;;;13.60;99.90;;;;;;5116800;28;20206;-81
2022/10/03 15:59:20;;;;;;;3.10;2.30;;;13.50;99.90;;;;;;5115696;28;20215;-82
2022/10/03 16:01:52;;;;;;;6.27;2.17;;;13.50;99.90;;;;;;5116815;28;20186;-81
2022/10/03 16:04:28;;;;;;;4.17;2.33;;;13.50;99.90;;;;;;5117267;28;20213;-79
2022/10/03 16:07:10;;;;;;;3.00;2.10;;;13.40;99.90;;;;;;5116727;28;20198;-81
2022/10/03 16:10:05;;;;;;;2.40;2.20;;;13.40;99.90;;;;;;5117093;28;20274;-83
2022/10/03 16:12:52;;;;;;;8.53;3.43;;;13.40;99.90;;;;;;5118781;28;20168;-81
2022/10/03 16:15:27;;;;;;;9.10;4.47;;;13.20;99.90;;;;;;5117089;28;20195;-84
2022/10/03 16:18:19;;;;;;;14.07;6.20;;;13.00;99.90;;;;;;5119473;28;20321;-81
2022/10/03 16:21:00;;;;;;;12.00;6.17;;;12.80;99.90;;;;;;5090176;28;20192;-83
2022/10/03 16:23:35;;;;;;;8.67;4.60;;;12.70;99.90;;;;;;5117520;28;20167;-82
2022/10/03 16:26:10;;;;;;;8.70;3.87;;;12.70;99.90;;;;;;5118217;28;20264;-81
2022/10/03 16:28:43;;;;;;;4.73;3.63;;;12.60;99.90;;;;;;5117301;28;20178;-80
2022/10/03 16:31:25;;;;;;;5.90;3.90;;;12.60;99.90;;;;;;5118258;28;20205;-81
2022/10/03 16:34:05;;;;;;;9.03;4.97;;;12.50;99.90;;;;;;5117575;28;20172;-79
2022/10/03 16:36:42;;;;;;;12.03;7.17;;;12.50;99.90;;;;;;5117409;28;20552;-82
2022/10/03 16:39:36;;;;;;;13.93;7.37;;;12.40;99.90;;;;;;5118500;28;20204;-81
2022/10/03 16:42:16;;;;;;;11.17;6.53;;;12.20;99.90;;;;;;5117433;28;20209;-81
2022/10/03 16:45:04;;;;;;;9.97;6.57;;;12.00;99.90;;;;;;5118174;28;20167;-81
2022/10/03 16:47:36;;;;;;;11.17;5.07;;;12.00;99.90;;;;;;5118048;28;20641;-80
2022/10/03 16:50:24;;;;;;;5.00;3.97;;;11.90;99.90;;;;;;5117887;28;20697;-81
2022/10/03 16:52:53;;;;;;;8.40;4.17;;;11.80;99.90;;;;;;5119137;28;20172;-82
2022/10/03 16:55:31;;;;;;;8.57;4.50;;;11.80;99.90;;;;;;5116666;28;20233;-81
2022/10/03 16:58:02;;;;;;;8.37;4.40;;;11.80;99.90;;;;;;5118447;28;20194;-82
2022/10/03 17:00:51;;;;;;;7.23;4.33;;;11.70;99.90;;;;;;5117490;28;20515;-81
2022/10/03 17:03:25;;;;;;;8.80;4.50;;;11.70;99.90;;;;;;5116899;28;20646;-82
2022/10/03 17:05:53;;;;;;;6.90;4.80;;;11.60;99.90;;;;;;5117820;28;20205;-84
2022/10/03 17:08:24;;;;;;;8.90;4.30;;;11.50;99.90;;;;;;5120054;28;20198;-82
2022/10/03 17:11:04;;;;;;;6.00;4.67;;;11.50;99.90;;;;;;5124243;28;20644;-81
2022/10/03 17:13:46;;;;;;;10.23;5.97;;;11.50;99.90;;;;;;5116572;28;20182;-82
2022/10/03 17:16:32;;;;;;;13.03;5.43;;;11.40;99.90;;;;;;5116759;28;20223;-81
2022/10/03 17:19:22;;;;;;;9.20;5.17;;;11.30;99.90;;;;;;5116229;28;20199;-82
2022/10/03 17:21:54;;;;;;;9.30;7.27;;;11.30;99.90;;;;;;5116601;28;20179;-82
2022/10/03 17:24:38;;;;;;;11.87;7.57;;;11.10;99.90;;;;;;5116292;28;20190;-81
2022/10/03 17:27:18;;;;;;;7.43;6.43;;;11.10;99.90;;;;;;5118091;28;20171;-82
2022/10/03 17:29:59;;;;;;;10.40;6.47;;;11.00;99.90;;;;;;5124314;28;20176;-80
2022/10/03 17:32:36;;;;;;;11.73;6.60;;;11.00;99.90;;;;;;5131492;28;20175;-83
2022/10/03 17:35:14;;;;;;;13.87;9.00;;;10.90;99.90;;;;;;5127554;28;20240;-81
2022/10/03 17:37:43;;;;;;;16.33;10.23;;;10.80;99.90;;;;;;5118827;28;20248;-82
2022/10/03 17:40:28;;;;;;;12.27;9.53;;;10.80;99.90;;;;;;5121597;28;20197;-82
2022/10/03 17:43:16;;;;;;;13.57;9.27;;;10.70;99.90;;;;;;5117891;28;20213;-82
2022/10/03 17:46:02;;;;;;;18.97;12.50;;;10.70;99.90;;;;;;5101351;28;20191;-83
2022/10/03 17:48:40;;;;;;;21.97;14.33;;;10.60;99.90;;;;;;5116896;28;20550;-81
2022/10/03 17:51:36;;;;;;;21.47;13.40;;;10.60;99.90;;;;;;5118634;28;20242;-82
2022/10/03 17:54:10;;;;;;;17.80;11.30;;;10.50;99.90;;;;;;5118962;28;20213;-83
2022/10/03 17:56:43;;;;;;;16.23;9.93;;;10.50;99.90;;;;;;5121475;28;20732;-83
2022/10/03 17:59:18;;;;;;;15.17;9.17;;;7.50;99.90;;;;;;5123787;28;20248;-81
2022/10/03 18:01:51;;;;;;;11.63;8.00;;;10.40;99.90;;;;;;5129922;28;20179;-82
2022/10/03 18:04:21;;;;;;;8.07;7.07;;;10.40;99.90;;;;;;5107603;28;20182;-84
2022/10/03 18:07:18;;;;;;;11.20;7.23;;;10.30;99.90;;;;;;5121706;28;20276;-84
2022/10/03 18:09:49;;;;;;;12.27;7.07;;;10.30;99.90;;;;;;5120686;28;20205;-86
2022/10/03 18:12:28;;;;;;;11.33;7.93;;;10.20;99.90;;;;;;5121031;28;20190;-85
2022/10/03 18:15:13;;;;;;;11.47;7.73;;;10.20;99.90;;;;;;5120407;28;20951;-85
2022/10/03 18:18:16;;;;;;;11.70;7.60;;;10.10;99.90;;;;;;5120391;28;20672;-85
2022/10/03 18:20:46;;;;;;;11.73;7.27;;;10.10;99.90;;;;;;5120508;28;20263;-83
2022/10/03 18:23:48;;;;;;;12.80;7.20;;;10.10;99.90;;;;;;5120259;28;20170;-85
2022/10/03 18:26:27;;;;;;;17.13;8.47;;;10.00;99.90;;;;;;5116742;28;20208;-85
2022/10/03 18:29:25;;;;;;;11.90;8.50;;;9.90;99.90;;;;;;5121599;28;20245;-86
2022/10/03 18:32:02;;;;;;;16.27;9.13;;;9.90;99.90;;;;;;5121224;28;20181;-85
2022/10/03 18:35:14;;;;;;;12.37;8.63;;;9.70;99.90;;;;;;5121137;28;20180;-85
2022/10/03 18:37:39;;;;;;;14.97;9.50;;;9.70;99.90;;;;;;5121314;28;20283;-86
2022/10/03 18:40:26;;;;;;;15.53;9.23;;;9.70;99.90;;;;;;5121601;28;20591;-85
2022/10/03 18:42:53;;;;;;;12.63;9.47;;;9.70;99.90;;;;;;5121486;28;20163;-85
2022/10/03 18:45:31;;;;;;;17.07;10.27;;;9.60;99.90;;;;;;5121878;28;20198;-85
2022/10/03 18:48:31;;;;;;;11.03;8.60;;;9.60;99.90;;;;;;5120729;28;20170;-86
2022/10/03 18:51:00;;;;;;;15.63;9.80;;;9.60;99.90;;;;;;5121996;28;20182;-85
2022/10/03 18:53:44;;;;;;;14.70;9.60;;;9.50;99.90;;;;;;5120812;28;20171;-85
2022/10/03 18:56:15;;;;;;;23.10;10.63;;;9.40;99.90;;;;;;5121415;28;20237;-84
2022/10/03 18:58:45;;;;;;;17.57;10.30;;;9.40;99.90;;;;;;5121475;28;20185;-84
2022/10/03 19:01:36;;;;;;;17.80;10.90;;;9.40;99.90;;;;;;5122191;28;20168;-84
2022/10/03 19:04:10;;;;;;;16.73;11.70;;;9.30;99.90;;;;;;5121424;28;20152;-85
2022/10/03 19:06:39;;;;;;;19.00;12.30;;;9.30;99.90;;;;;;5124385;28;20200;-84
2022/10/03 19:09:18;;;;;;;15.90;12.13;;;9.30;99.90;;;;;;5124978;28;20175;-84
2022/10/03 19:12:01;;;;;;;17.33;12.43;;;9.20;99.90;;;;;;5123190;28;20539;-86
2022/10/03 19:15:06;;;;;;;18.27;13.17;;;9.10;99.90;;;;;;5120379;28;20179;-85
2022/10/03 19:17:34;;;;;;;18.30;14.03;;;9.10;99.90;;;;;;5120034;28;20198;-85
2022/10/03 19:20:19;;;;;;;19.90;13.73;;;9.10;99.90;;;;;;5119997;28;20175;-84
2022/10/03 19:23:08;;;;;;;19.33;13.70;;;9.00;99.90;;;;;;5120481;28;20177;-85
2022/10/03 19:25:37;;;;;;;22.33;12.60;;;9.00;99.90;;;;;;5119327;28;20657;-85
2022/10/03 19:28:21;;;;;;;21.73;15.07;;;9.00;99.90;;;;;;5120628;28;20167;-85
2022/10/03 19:30:57;;;;;;;20.90;13.93;;;8.90;99.90;;;;;;5119993;28;20185;-84
2022/10/03 19:33:26;;;;;;;18.10;13.23;;;8.90;99.90;;;;;;5120199;28;20162;-84
2022/10/03 19:35:58;;;;;;;18.77;13.90;;;8.90;99.90;;;;;;5120348;28;20202;-85
2022/10/03 19:38:29;;;;;;;18.07;13.20;;;8.80;99.90;;;;;;5117345;28;20194;-86
2022/10/03 19:41:16;;;;;;;17.63;13.67;;;8.70;99.90;;;;;;5117040;28;20155;-85
2022/10/03 19:43:48;;;;;;;19.97;13.90;;;8.70;99.90;;;;;;5118263;28;20155;-83
2022/10/03 19:46:28;;;;;;;22.93;15.87;;;8.60;99.90;;;;;;5116715;28;20246;-84
2022/10/03 19:48:57;;;;;;;25.40;15.00;;;8.60;99.90;;;;;;5117544;28;20157;-84
2022/10/03 19:51:25;;;;;;;23.50;16.00;;;8.60;99.90;;;;;;5116739;28;20178;-84
2022/10/03 19:53:53;;;;;;;19.87;14.07;;;8.60;99.90;;;;;;5117080;28;20182;-84
2022/10/03 19:56:21;;;;;;;22.37;13.53;;;8.50;99.90;;;;;;5116213;28;20271;-84
2022/10/03 19:58:57;;;;;;;21.07;14.30;;;8.60;99.90;;;;;;5117550;28;20244;-84
2022/10/03 20:01:24;;;;;;;20.50;14.37;;;8.60;99.90;;;;;;5116744;28;20175;-84
2022/10/03 20:03:56;;;;;;;19.03;13.57;;;8.50;99.90;;;;;;5117727;28;20619;-83
2022/10/03 20:06:28;;;;;;;18.30;13.97;;;8.50;99.90;;;;;;5117494;28;20226;-84
2022/10/03 20:09:01;;;;;;;16.70;12.03;;;8.50;99.90;;;;;;5117600;28;20187;-84
2022/10/03 20:11:35;;;;;;;19.17;12.03;;;8.50;99.90;;;;;;5118977;28;20747;-84
2022/10/03 20:14:04;;;;;;;19.40;12.43;;;8.40;99.90;;;;;;5117079;28;20192;-84
2022/10/03 20:16:38;;;;;;;14.87;11.23;;;8.40;99.90;;;;;;5119945;28;20209;-85
2022/10/03 20:19:20;;;;;;;22.13;10.97;;;8.30;99.90;;;;;;5122202;28;20206;-85
2022/10/03 20:21:54;;;;;;;21.30;10.60;;;8.30;99.90;;;;;;5120879;28;20261;-84
2022/10/03 20:24:34;;;;;;;12.13;9.70;;;8.20;99.90;;;;;;5120986;28;20174;-84
2022/10/03 20:27:43;;;;;;;14.60;11.03;;;8.20;99.90;;;;;;5121834;28;20263;-84
2022/10/03 20:30:21;;;;;;;19.27;12.43;;;8.20;99.90;;;;;;5099177;28;20617;-84
2022/10/03 20:32:48;;;;;;;16.17;12.33;;;8.10;99.90;;;;;;5119658;28;20209;-85
2022/10/03 20:35:22;;;;;;;17.53;12.57;;;8.00;99.90;;;;;;5119703;28;20228;-83
2022/10/03 20:38:03;;;;;;;16.70;12.07;;;8.10;99.90;;;;;;5120651;28;20678;-83
2022/10/03 20:40:43;;;;;;;19.10;12.07;;;8.00;99.90;;;;;;5120285;28;20169;-84
2022/10/03 20:43:36;;;;;;;15.83;11.33;;;8.00;99.90;;;;;;5119646;28;20172;-84
2022/10/03 20:46:05;;;;;;;21.37;11.77;;;7.90;99.90;;;;;;5120741;28;20197;-85
2022/10/03 20:48:36;;;;;;;20.87;11.87;;;7.90;99.90;;;;;;5126745;28;20177;-85
2022/10/03 20:51:02;;;;;;;18.23;11.87;;;7.90;99.90;;;;;;5137553;28;20204;-86
2022/10/03 20:53:30;;;;;;;23.77;13.17;;;7.90;99.90;;;;;;5132619;28;20186;-84
2022/10/03 20:56:01;;;;;;;19.17;12.50;;;7.80;99.90;;;;;;5120394;28;20672;-86
2022/10/03 20:58:34;;;;;;;18.07;12.50;;;7.80;99.90;;;;;;5119979;28;20278;-86
2022/10/03 21:01:20;;;;;;;19.60;13.17;;;7.80;99.90;;;;;;5120281;28;20179;-85
2022/10/03 21:03:46;;;;;;;16.97;12.73;;;7.70;99.90;;;;;;5120054;28;20183;-83
2022/10/03 21:06:23;;;;;;;22.97;12.27;;;7.70;99.90;;;;;;5121468;28;20183;-85
2022/10/03 21:08:50;;;;;;;20.00;12.37;;;7.70;99.90;;;;;;5119561;28;20191;-85
2022/10/03 21:11:37;;;;;;;16.77;12.13;;;7.70;99.90;;;;;;5119386;28;20418;-86